Terminal Aerodrome Forecast
Issued by NWS

Home | Current Version | Previous Version | Text Only | Print | Product List | Glossary On
Versions: 1 2 3 4 5 6 7 8 9 10 11 12 13 14 15 16 17 18 19 20 21 22 23 24 25 26 27 28 29 30 31 32 33 34 35
000
FTUS43 KDTX 240521
TAFYIP
TAF
KYIP 240521Z 2406/2506 24016G27KT P6SM -RA BKN014 OVC025
     FM240800 22012G20KT P6SM SCT018 BKN035 OVC090
     FM241100 20011G19KT P6SM -RA BKN018 OVC060
     FM241700 20016G26KT P6SM SCT028 OVC040
     FM250200 21013G20KT 6SM -RA BR SCT008 OVC018=

USA.gov is the U.S. government's official web portal to all federal, state and local government web resources and services.